createdAt,value
2016-07-27T00:01:54.471Z,17.1
2016-07-27T00:04:58.514Z,17.1
2016-07-27T00:08:12.060Z,17.1
2016-07-27T00:11:25.143Z,17
2016-07-27T00:14:38.479Z,17
2016-07-27T00:17:57.259Z,16.9
2016-07-27T00:21:01.411Z,16.9
2016-07-27T00:24:14.772Z,16.9
2016-07-27T00:27:28.435Z,16.9
2016-07-27T00:30:41.667Z,16.9
2016-07-27T00:34:00.072Z,16.9
2016-07-27T00:37:04.336Z,16.9
2016-07-27T00:40:17.785Z,16.9
2016-07-27T00:43:31.404Z,16.9
2016-07-27T00:46:44.760Z,16.9
2016-07-27T00:49:58.067Z,16.9
2016-07-27T00:53:11.277Z,16.8
2016-07-27T00:56:24.948Z,16.8
2016-07-27T00:59:38.619Z,16.7
2016-07-27T01:02:57.011Z,16.7
2016-07-27T01:06:01.145Z,16.6
2016-07-27T01:09:14.602Z,16.6
2016-07-27T01:12:28.220Z,16.6
2016-07-27T01:15:41.659Z,16.6
2016-07-27T01:19:00.349Z,16.6
2016-07-27T01:22:02.470Z,16.6
2016-07-27T01:25:18.124Z,16.5
2016-07-27T01:28:30.986Z,16.5
2016-07-27T01:31:44.328Z,16.4
2016-07-27T01:34:57.865Z,16.4
2016-07-27T01:38:11.497Z,16.4
2016-07-27T01:41:25.195Z,16.3
2016-07-27T01:44:38.478Z,16.2
2016-07-27T01:51:00.936Z,16.2
2016-07-27T01:54:14.477Z,16.2
2016-07-27T01:57:27.744Z,16.1
2016-07-27T02:00:41.235Z,16
2016-07-27T02:03:59.612Z,15.9
2016-07-27T02:07:03.507Z,15.9
2016-07-27T02:10:16.762Z,15.8
2016-07-27T02:13:30.421Z,15.8
2016-07-27T02:16:43.983Z,15.8
2016-07-27T02:19:57.597Z,15.8
2016-07-27T02:23:11.035Z,15.8
2016-07-27T02:26:24.504Z,15.8
2016-07-27T02:29:37.553Z,15.7
2016-07-27T02:32:56.479Z,15.6
2016-07-27T02:35:57.876Z,15.6
2016-07-27T02:39:13.360Z,15.6
2016-07-27T02:42:26.548Z,15.6
2016-07-27T02:45:40.098Z,15.6
2016-07-27T02:48:58.391Z,15.6
2016-07-27T02:52:02.375Z,15.5
2016-07-27T02:55:15.294Z,15.5
2016-07-27T02:58:28.987Z,15.5
2016-07-27T03:01:42.540Z,15.5
2016-07-27T03:04:56.042Z,15.5
2016-07-27T03:08:09.371Z,15.5
2016-07-27T03:11:22.750Z,15.4
2016-07-27T03:14:35.701Z,15.4
2016-07-27T03:17:53.949Z,15.4
2016-07-27T03:20:57.971Z,15.4
2016-07-27T03:24:11.076Z,15.4
2016-07-27T03:27:23.514Z,15.4
2016-07-27T03:30:36.909Z,15.4
2016-07-27T03:33:55.046Z,15.4
2016-07-27T03:40:12.415Z,15.4
2016-07-27T03:43:25.860Z,15.4
2016-07-27T03:46:39.316Z,15.4
2016-07-27T03:49:56.853Z,15.5
2016-07-27T03:53:00.777Z,15.5
2016-07-27T03:56:14.219Z,15.5
2016-07-27T03:59:27.421Z,15.5
2016-07-27T04:02:40.943Z,15.5
2016-07-27T04:05:59.384Z,15.4
2016-07-27T04:09:03.500Z,15.4
2016-07-27T04:12:16.523Z,15.5
2016-07-27T04:15:29.779Z,15.5
2016-07-27T04:18:43.071Z,15.5
2016-07-27T04:21:56.493Z,15.5
2016-07-27T04:25:10.040Z,15.5
2016-07-27T04:28:23.470Z,15.5
2016-07-27T04:31:37.002Z,15.5
2016-07-27T04:34:55.403Z,15.5
2016-07-27T04:37:59.323Z,15.6
2016-07-27T04:41:12.496Z,15.6
2016-07-27T04:44:26.132Z,15.6
2016-07-27T04:47:39.839Z,15.7
2016-07-27T04:50:58.490Z,15.7
2016-07-27T04:54:02.544Z,15.7
2016-07-27T04:57:15.855Z,15.8
2016-07-27T05:00:29.471Z,15.9
2016-07-27T05:03:43.096Z,16
2016-07-27T05:06:54.379Z,16
2016-07-27T05:10:09.498Z,16.1
2016-07-27T05:13:22.472Z,16.2
2016-07-27T05:16:36.084Z,16.3
2016-07-27T05:19:54.483Z,16.4
2016-07-27T05:22:58.624Z,16.5
2016-07-27T05:26:12.363Z,16.7
2016-07-27T05:29:24.219Z,16.9
2016-07-27T05:32:43.948Z,17.1
2016-07-27T05:35:58.439Z,17.2
2016-07-27T05:39:02.850Z,17.4
2016-07-27T05:42:16.018Z,17.5
2016-07-27T05:45:29.941Z,17.6
2016-07-27T05:48:43.663Z,17.8
2016-07-27T05:51:57.283Z,17.9
2016-07-27T05:55:10.843Z,18.1
2016-07-27T05:58:24.627Z,18.2
2016-07-27T06:01:38.296Z,18.4
2016-07-27T06:04:57.072Z,18.5
2016-07-27T06:08:01.377Z,18.7
2016-07-27T06:11:14.842Z,18.9
2016-07-27T06:14:28.760Z,19
2016-07-27T06:17:42.301Z,19.2
2016-07-27T06:20:55.878Z,19.4
2016-07-27T06:24:09.364Z,19.7
2016-07-27T06:27:23.240Z,19.9
2016-07-27T06:30:37.005Z,20.2
2016-07-27T06:33:55.914Z,20.2
2016-07-27T06:37:00.543Z,20.4
2016-07-27T06:40:14.534Z,20.5
2016-07-27T06:43:28.585Z,20.6
2016-07-27T06:46:42.634Z,20.7
2016-07-27T06:49:56.069Z,20.8
2016-07-27T06:53:10.076Z,20.9
2016-07-27T06:56:23.975Z,21
2016-07-27T06:59:37.768Z,21
2016-07-27T07:02:56.759Z,21.3
2016-07-27T07:06:01.317Z,21.5
2016-07-27T07:09:14.999Z,21.5
2016-07-27T07:12:29.066Z,21.4
2016-07-27T07:15:43.112Z,21.4
2016-07-27T07:18:57.025Z,21.6
2016-07-27T07:22:11.071Z,21.6
2016-07-27T07:25:24.924Z,21.6
2016-07-27T07:28:38.885Z,21.5
2016-07-27T07:31:57.876Z,21.5
2016-07-27T07:35:02.469Z,21.3
2016-07-27T07:38:15.651Z,20.9
2016-07-27T07:41:29.399Z,20.9
2016-07-27T07:44:43.036Z,20.9
2016-07-27T07:47:56.723Z,21.1
2016-07-27T07:51:10.462Z,21.7
2016-07-27T07:54:24.548Z,22.1
2016-07-27T07:57:38.439Z,21.8
2016-07-27T08:00:57.271Z,21.7
2016-07-27T08:04:01.868Z,21.6
2016-07-27T08:07:15.822Z,21.4
2016-07-27T08:10:29.487Z,21.2
2016-07-27T08:13:43.488Z,21.4
2016-07-27T08:16:57.302Z,22
2016-07-27T08:20:11.568Z,22.3
2016-07-27T08:23:25.434Z,22.1
2016-07-27T08:26:38.595Z,21.8
2016-07-27T08:29:57.247Z,21.6
2016-07-27T08:33:01.831Z,21.5
2016-07-27T08:36:15.044Z,21.4
2016-07-27T08:39:29.016Z,21.4
2016-07-27T08:42:42.772Z,21.4
2016-07-27T08:46:01.231Z,21.4
2016-07-27T08:49:05.776Z,21.6
2016-07-27T08:52:19.813Z,21.8
2016-07-27T08:55:33.908Z,21.8
2016-07-27T08:58:53.056Z,21.9
2016-07-27T09:01:56.999Z,22.1
2016-07-27T09:05:10.863Z,22.3
2016-07-27T09:08:24.685Z,22.4
2016-07-27T09:11:38.557Z,22.5
2016-07-27T09:14:57.819Z,22.6
2016-07-27T09:18:02.344Z,22.6
2016-07-27T09:21:15.898Z,22.4
2016-07-27T09:24:29.816Z,22.5
2016-07-27T09:27:44.111Z,22.8
2016-07-27T09:30:58.298Z,23.2
2016-07-27T09:34:12.185Z,23.2
2016-07-27T09:37:26.206Z,23.2
2016-07-27T09:40:40.307Z,23.4
2016-07-27T09:43:59.013Z,23
2016-07-27T09:47:03.374Z,22.6
2016-07-27T09:50:17.274Z,22.2
2016-07-27T09:53:30.718Z,22
2016-07-27T09:56:44.347Z,21.9
2016-07-27T09:59:58.214Z,21.8
2016-07-27T10:03:12.335Z,21.7
2016-07-27T10:06:25.171Z,21.6
2016-07-27T10:09:39.100Z,21.8
2016-07-27T10:12:57.789Z,22
2016-07-27T10:16:02.605Z,22.3
2016-07-27T10:19:16.587Z,22.3
2016-07-27T10:22:30.084Z,22.3
2016-07-27T10:25:44.032Z,22.1
2016-07-27T10:28:58.136Z,22.1
2016-07-27T10:32:15.868Z,22
2016-07-27T10:35:25.449Z,21.8
2016-07-27T10:38:36.811Z,21.7
2016-07-27T10:41:57.460Z,21.5
2016-07-27T10:45:01.987Z,21.5
2016-07-27T10:48:15.554Z,21.4
2016-07-27T10:51:29.572Z,21.4
2016-07-27T10:54:43.308Z,21.4
2016-07-27T10:57:57.252Z,21.4
2016-07-27T11:01:11.259Z,21.5
2016-07-27T11:04:24.830Z,21.5
2016-07-27T11:07:38.667Z,21.6
2016-07-27T11:10:57.557Z,21.6
2016-07-27T11:14:02.183Z,21.8
2016-07-27T11:17:15.834Z,21.9
2016-07-27T11:20:29.883Z,22.1
2016-07-27T11:23:43.593Z,22.1
2016-07-27T11:26:57.472Z,22
2016-07-27T11:30:11.415Z,22
2016-07-27T11:33:25.135Z,22
2016-07-27T11:36:39.292Z,22.1
2016-07-27T11:39:57.974Z,22.1
2016-07-27T11:43:02.570Z,22.2
2016-07-27T11:46:16.207Z,22.2
2016-07-27T11:49:29.764Z,22.2
2016-07-27T11:52:43.785Z,22
2016-07-27T11:55:57.628Z,21.8
2016-07-27T11:59:11.732Z,21.6
2016-07-27T12:02:25.836Z,21.5
2016-07-27T12:05:39.513Z,21.4
2016-07-27T12:08:58.121Z,21.3
2016-07-27T12:12:02.682Z,21.2
2016-07-27T12:15:16.109Z,21.1
2016-07-27T12:18:29.969Z,21
2016-07-27T12:21:43.919Z,20.9
2016-07-27T12:24:57.922Z,20.8
2016-07-27T12:28:11.615Z,20.8
2016-07-27T12:31:24.788Z,20.7
2016-07-27T12:34:38.663Z,20.6
2016-07-27T12:41:01.622Z,20.6
2016-07-27T12:44:15.260Z,20.6
2016-07-27T12:47:28.908Z,20.5
2016-07-27T12:50:42.594Z,20.5
2016-07-27T12:54:00.961Z,20.4
2016-07-27T12:57:05.511Z,20.4
2016-07-27T13:00:19.300Z,20.3
2016-07-27T13:03:32.875Z,20.3
2016-07-27T13:06:45.511Z,20.3
2016-07-27T13:09:59.270Z,20.3
2016-07-27T13:13:13.194Z,20.2
2016-07-27T13:16:26.827Z,20.2
2016-07-27T13:19:40.211Z,20.1
2016-07-27T13:22:58.764Z,20.1
2016-07-27T13:26:03.136Z,20
2016-07-27T13:29:17.088Z,20
2016-07-27T13:32:28.500Z,19.9
2016-07-27T13:35:44.582Z,19.8
2016-07-27T13:38:58.157Z,19.7
2016-07-27T13:42:11.890Z,19.7
2016-07-27T13:45:25.446Z,19.6
2016-07-27T13:48:39.272Z,19.5
2016-07-27T13:51:58.086Z,19.5
2016-07-27T13:55:02.514Z,19.5
2016-07-27T13:58:16.472Z,19.5
2016-07-27T14:01:30.369Z,19.4
2016-07-27T14:04:43.762Z,19.1
2016-07-27T14:07:57.526Z,18.9
2016-07-27T14:11:10.281Z,18.7
2016-07-27T14:14:23.971Z,18.7
2016-07-27T14:17:37.733Z,18.7
2016-07-27T14:20:56.483Z,18.5
2016-07-27T14:24:00.742Z,18.4
2016-07-27T14:27:14.437Z,18.4
2016-07-27T14:30:28.186Z,18.4
2016-07-27T14:33:41.774Z,18.4
2016-07-27T14:37:00.163Z,18.3
2016-07-27T14:40:04.348Z,18.3
2016-07-27T14:43:18.279Z,18.3
2016-07-27T14:46:31.958Z,18.2
2016-07-27T14:49:45.312Z,18.2
2016-07-27T14:52:59.156Z,18.1
2016-07-27T14:56:12.444Z,18.1
2016-07-27T14:59:26.270Z,18.1
2016-07-27T15:02:39.360Z,18.1
2016-07-27T15:05:58.181Z,18
2016-07-27T15:09:02.388Z,18
2016-07-27T15:12:16.269Z,18
2016-07-27T15:15:29.553Z,18
2016-07-27T15:18:43.121Z,18.1
2016-07-27T15:21:56.945Z,18
2016-07-27T15:25:10.846Z,18
2016-07-27T15:28:24.633Z,18
2016-07-27T15:31:38.099Z,18.1
2016-07-27T15:34:56.936Z,18.1
2016-07-27T15:38:01.346Z,18.2
2016-07-27T15:41:14.607Z,18.2
2016-07-27T15:44:28.418Z,18.2
2016-07-27T15:47:41.996Z,18.2
2016-07-27T15:51:00.696Z,18.3
2016-07-27T15:57:18.423Z,18.2
2016-07-27T16:00:31.817Z,18.2
2016-07-27T16:03:45.386Z,18.2
2016-07-27T16:06:58.983Z,18.2
2016-07-27T16:10:12.198Z,18.3
2016-07-27T16:13:25.972Z,18.2
2016-07-27T16:16:39.711Z,18.2
2016-07-27T16:19:58.620Z,18.2
2016-07-27T16:23:02.969Z,18.2
2016-07-27T16:26:16.338Z,18.2
2016-07-27T16:29:28.153Z,18.2
2016-07-27T16:32:43.967Z,18.1
2016-07-27T16:35:57.770Z,18.1
2016-07-27T16:39:11.596Z,18.1
2016-07-27T16:42:25.321Z,18.1
2016-07-27T16:45:39.164Z,18.1
2016-07-27T16:48:58.319Z,18.2
2016-07-27T16:52:02.613Z,18.2
2016-07-27T16:55:16.112Z,18.3
2016-07-27T16:58:30.359Z,18.3
2016-07-27T17:01:44.163Z,18.3
2016-07-27T17:04:58.143Z,18.3
2016-07-27T17:08:07.422Z,18.3
2016-07-27T17:11:23.176Z,18.3
2016-07-27T17:14:37.049Z,18.3
2016-07-27T17:17:56.067Z,18.3
2016-07-27T17:21:00.415Z,18.2
2016-07-27T17:24:14.341Z,18.2
2016-07-27T17:27:28.087Z,18.1
2016-07-27T17:30:41.936Z,18.1
2016-07-27T17:33:58.321Z,18
2016-07-27T17:37:02.561Z,18
2016-07-27T17:40:14.155Z,18
2016-07-27T17:43:30.226Z,18
2016-07-27T17:46:44.062Z,17.9
2016-07-27T17:49:57.656Z,17.9
2016-07-27T17:53:11.789Z,17.9
2016-07-27T17:56:25.910Z,17.9
2016-07-27T17:59:39.651Z,18
2016-07-27T18:02:56.477Z,18
2016-07-27T18:06:00.871Z,17.9
2016-07-27T18:09:14.972Z,17.9
2016-07-27T18:12:29.092Z,17.9
2016-07-27T18:15:43.077Z,17.9
2016-07-27T18:18:57.005Z,17.9
2016-07-27T18:22:11.021Z,17.9
2016-07-27T18:25:24.369Z,17.9
2016-07-27T18:28:38.490Z,17.9
2016-07-27T18:31:56.835Z,17.9
2016-07-27T18:35:01.214Z,17.9
2016-07-27T18:38:14.812Z,17.8
2016-07-27T18:41:28.794Z,17.8
2016-07-27T18:44:42.330Z,17.7
2016-07-27T18:48:01.354Z,17.7
2016-07-27T18:51:05.680Z,17.6
2016-07-27T18:54:19.531Z,17.6
2016-07-27T18:57:30.870Z,17.6
2016-07-27T19:00:44.495Z,17.6
2016-07-27T19:03:58.454Z,17.6
2016-07-27T19:07:12.331Z,17.5
2016-07-27T19:10:26.292Z,17.5
2016-07-27T19:13:40.249Z,17.5
2016-07-27T19:16:58.715Z,17.4
2016-07-27T19:20:02.966Z,17.4
2016-07-27T19:23:16.586Z,17.4
2016-07-27T19:26:30.225Z,17.4
2016-07-27T19:29:44.085Z,17.4
2016-07-27T19:32:57.933Z,17.4
2016-07-27T19:36:11.922Z,17.4
2016-07-27T19:39:23.834Z,17.4
2016-07-27T19:42:39.316Z,17.4
2016-07-27T19:45:58.356Z,17.4
2016-07-27T19:49:02.582Z,17.4
2016-07-27T19:52:16.209Z,17.4
2016-07-27T19:55:30.444Z,17.4
2016-07-27T19:58:43.841Z,17.3
2016-07-27T20:01:57.365Z,17.3
2016-07-27T20:05:10.675Z,17.3
2016-07-27T20:08:24.017Z,17.3
2016-07-27T20:11:37.465Z,17.3
2016-07-27T20:14:55.935Z,17.3
2016-07-27T20:18:00.168Z,17.3
2016-07-27T20:21:13.846Z,17.3
2016-07-27T20:24:27.485Z,17.3
2016-07-27T20:27:41.159Z,17.3
2016-07-27T20:30:59.617Z,17.3
2016-07-27T20:34:03.852Z,17.3
2016-07-27T20:37:17.334Z,17.3
2016-07-27T20:40:31.032Z,17.3
2016-07-27T20:43:44.272Z,17.4
2016-07-27T20:46:57.848Z,17.4
2016-07-27T20:50:11.163Z,17.4
2016-07-27T20:53:24.621Z,17.4
2016-07-27T20:56:37.625Z,17.4
2016-07-27T20:59:56.118Z,17.4
2016-07-27T21:03:00.431Z,17.4
2016-07-27T21:06:14.130Z,17.3
2016-07-27T21:09:27.685Z,17.3
2016-07-27T21:12:41.574Z,17.3
2016-07-27T21:16:00.514Z,17.3
2016-07-27T21:19:04.684Z,17.3
2016-07-27T21:22:18.067Z,17.3
2016-07-27T21:28:45.459Z,17.3
2016-07-27T21:31:58.858Z,17.2
2016-07-27T21:35:12.522Z,17.2
2016-07-27T21:38:26.179Z,17.2
2016-07-27T21:41:39.895Z,17.2
2016-07-27T21:44:58.464Z,17.2
2016-07-27T21:51:11.809Z,17.1
2016-07-27T21:54:25.572Z,17.1
2016-07-27T21:57:39.390Z,17.1
2016-07-27T22:00:53.269Z,17.1
2016-07-27T22:04:12.038Z,17.1
2016-07-27T22:07:16.226Z,17.1
2016-07-27T22:10:30.194Z,17.1
2016-07-27T22:13:44.092Z,17.2
2016-07-27T22:16:58.058Z,17.2
2016-07-27T22:20:10.732Z,17.2
2016-07-27T22:23:24.738Z,17.2
2016-07-27T22:26:38.761Z,17.2
2016-07-27T22:29:52.749Z,17.2
2016-07-27T22:33:11.472Z,17.1
2016-07-27T22:36:15.624Z,17.1
2016-07-27T22:39:29.471Z,17.1
2016-07-27T22:42:42.709Z,17.1
2016-07-27T22:45:56.288Z,17.1
2016-07-27T22:49:15.429Z,17.1
2016-07-27T22:52:19.806Z,17.1
2016-07-27T22:55:34.028Z,17
2016-07-27T22:58:47.811Z,17
2016-07-27T23:02:06.784Z,17
2016-07-27T23:05:11.038Z,17
2016-07-27T23:08:24.947Z,17
2016-07-27T23:11:38.863Z,17
2016-07-27T23:14:52.692Z,17
2016-07-27T23:18:11.862Z,17
2016-07-27T23:21:13.946Z,17
2016-07-27T23:24:30.055Z,17
2016-07-27T23:27:43.975Z,17
2016-07-27T23:30:57.084Z,16.9
2016-07-27T23:34:15.421Z,17
2016-07-27T23:37:23.766Z,16.9
2016-07-27T23:40:33.381Z,17
2016-07-27T23:43:47.056Z,17
2016-07-27T23:47:06.194Z,17
2016-07-27T23:50:15.476Z,17
2016-07-27T23:53:19.783Z,17
2016-07-27T23:56:33.725Z,17
2016-07-27T23:59:47.508Z,17
